Time;durP1;ratioP1;P1;durP2;ratioP2;P2;SDS_P1;SDS_P2;PMS_P1;PMS_P2;Temp;Humidity;BMP_temperature;BMP_pressure;BME280_temperature;BME280_humidity;BME280_pressure;Samples;Min_cycle;Max_cycle;Signal;HPM_P1;HPM_P2
2022/01/27 00:00:19;;;;;;;1.27;1.07;;;3.30;99.90;;;;;;5068380;28;20236;-79
2022/01/27 00:07:36;;;;;;;2.77;0.63;;;3.30;99.90;;;;;;5067614;28;20183;-79
2022/01/27 00:10:19;;;;;;;0.23;0.23;;;3.40;99.90;;;;;;5066962;28;20276;-80
2022/01/27 00:12:45;;;;;;;1.50;1.40;;;3.30;99.90;;;;;;5068316;28;20716;-79
2022/01/27 00:15:13;;;;;;;0.47;0.47;;;3.30;99.90;;;;;;5066841;28;20182;-79
2022/01/27 00:17:47;;;;;;;3.60;1.33;;;3.30;99.90;;;;;;5066537;28;20181;-79
2022/01/27 00:20:14;;;;;;;0.80;0.80;;;3.30;99.90;;;;;;5066660;28;20213;-79
2022/01/27 00:22:42;;;;;;;1.53;0.87;;;3.30;99.90;;;;;;5068205;28;20233;-79
2022/01/27 00:25:09;;;;;;;0.63;0.63;;;3.30;99.90;;;;;;5067565;28;20169;-79
2022/01/27 00:27:34;;;;;;;1.07;0.73;;;3.20;99.90;;;;;;5066103;28;20281;-79
2022/01/27 00:30:03;;;;;;;0.70;0.70;;;3.30;99.90;;;;;;5067892;28;20294;-79
2022/01/27 00:32:30;;;;;;;1.27;0.57;;;3.30;99.90;;;;;;5067644;28;20247;-79
2022/01/27 00:34:56;;;;;;;0.77;0.77;;;3.20;99.90;;;;;;5067714;28;20207;-78
2022/01/27 00:37:21;;;;;;;1.37;0.83;;;3.20;99.90;;;;;;5074841;28;20220;-79
2022/01/27 00:39:47;;;;;;;0.93;0.47;;;3.20;99.90;;;;;;5066320;28;20255;-80
2022/01/27 00:42:12;;;;;;;1.23;0.93;;;3.20;99.90;;;;;;5068166;28;20228;-79
2022/01/27 00:44:38;;;;;;;0.47;0.40;;;3.10;99.90;;;;;;5068186;28;20178;-80
2022/01/27 00:47:04;;;;;;;1.90;1.07;;;3.10;99.90;;;;;;5065669;28;20561;-79
2022/01/27 00:49:30;;;;;;;2.43;1.00;;;3.10;99.90;;;;;;5067165;28;20221;-80
2022/01/27 00:51:56;;;;;;;0.50;0.47;;;3.10;99.90;;;;;;5065873;28;20216;-78
2022/01/27 00:54:26;;;;;;;0.43;0.43;;;3.00;99.90;;;;;;5065956;28;20259;-79
2022/01/27 00:56:58;;;;;;;3.17;1.10;;;3.10;99.90;;;;;;5066392;28;20187;-79
2022/01/27 01:02:06;;;;;;;1.57;1.43;;;3.10;99.90;;;;;;5067092;28;21026;-79
2022/01/27 01:04:35;;;;;;;1.07;0.90;;;3.10;99.90;;;;;;5064719;28;20199;-79
2022/01/27 01:07:01;;;;;;;2.60;0.57;;;3.00;99.90;;;;;;5066315;28;20177;-79
2022/01/27 01:14:49;;;;;;;1.73;1.37;;;3.00;99.90;;;;;;5064915;28;20177;-79
2022/01/27 01:33:11;;;;;;;1.90;0.97;;;3.10;99.90;;;;;;5066465;28;20183;-79
2022/01/27 01:38:12;;;;;;;1.47;0.83;;;3.10;99.90;;;;;;5068161;28;20218;-79
2022/01/27 01:40:37;;;;;;;5.87;1.20;;;3.10;99.90;;;;;;5067499;28;20202;-79
2022/01/27 01:43:03;;;;;;;0.43;0.43;;;3.10;99.90;;;;;;5065862;28;20179;-79
2022/01/27 01:45:34;;;;;;;1.60;0.63;;;3.00;99.90;;;;;;5066582;28;20185;-79
2022/01/27 01:47:59;;;;;;;1.40;0.60;;;3.10;99.90;;;;;;5066855;28;20285;-79
2022/01/27 01:50:25;;;;;;;2.10;1.07;;;3.10;99.90;;;;;;5066987;28;20610;-79
2022/01/27 01:52:52;;;;;;;0.50;0.50;;;3.10;99.90;;;;;;5068027;28;20643;-80
2022/01/27 01:55:18;;;;;;;0.47;0.47;;;3.10;99.90;;;;;;5066945;28;20179;-79
2022/01/27 01:57:44;;;;;;;0.87;0.70;;;3.10;99.90;;;;;;5074145;28;20186;-79
2022/01/27 02:00:12;;;;;;;0.67;0.60;;;3.10;99.90;;;;;;5068676;28;20217;-79
2022/01/27 02:02:39;;;;;;;3.50;0.60;;;3.10;99.90;;;;;;5069008;28;20206;-79
2022/01/27 02:05:06;;;;;;;0.70;0.43;;;3.10;99.90;;;;;;5067376;28;20208;-79
2022/01/27 02:10:13;;;;;;;1.73;1.20;;;3.10;99.90;;;;;;5067700;28;20253;-79
2022/01/27 02:18:08;;;;;;;0.27;0.27;;;3.20;99.90;;;;;;5066878;28;20226;-79
2022/01/27 02:20:40;;;;;;;1.13;0.97;;;3.30;99.90;;;;;;5075349;28;20578;-80
2022/01/27 02:23:07;;;;;;;1.03;0.93;;;3.30;99.90;;;;;;5075129;28;20320;-79
2022/01/27 02:25:33;;;;;;;0.80;0.63;;;3.30;99.90;;;;;;5085604;28;20185;-79
2022/01/27 02:27:59;;;;;;;0.90;0.90;;;3.30;99.90;;;;;;5085484;28;20253;-79
2022/01/27 02:30:25;;;;;;;0.93;0.60;;;3.20;99.90;;;;;;5087623;28;20213;-79
2022/01/27 02:32:52;;;;;;;0.80;0.80;;;3.20;99.90;;;;;;5087461;28;20233;-79
2022/01/27 02:35:19;;;;;;;0.93;0.57;;;3.10;99.90;;;;;;5072770;28;20655;-79
2022/01/27 02:37:45;;;;;;;1.00;1.00;;;3.00;99.90;;;;;;5061480;28;20564;-78
2022/01/27 02:40:12;;;;;;;1.20;1.00;;;3.10;99.90;;;;;;5067133;28;20214;-79
2022/01/27 02:42:38;;;;;;;1.37;0.90;;;3.10;99.90;;;;;;5065977;28;20179;-79
2022/01/27 02:45:08;;;;;;;0.30;0.30;;;3.00;99.90;;;;;;5069671;28;20183;-79
2022/01/27 02:47:34;;;;;;;0.60;0.60;;;3.00;99.90;;;;;;5069632;28;20250;-79
2022/01/27 02:50:00;;;;;;;1.40;1.07;;;3.00;99.90;;;;;;5065611;28;20216;-79
2022/01/27 02:52:26;;;;;;;1.60;1.03;;;2.90;99.90;;;;;;5066145;28;20190;-79
2022/01/27 02:54:52;;;;;;;2.43;1.10;;;2.80;99.90;;;;;;5067471;28;20651;-79
2022/01/27 02:57:19;;;;;;;4.07;1.23;;;2.70;99.90;;;;;;5065043;28;20223;-79
2022/01/27 02:59:45;;;;;;;1.80;1.43;;;2.70;99.90;;;;;;5065449;28;20225;-79
2022/01/27 03:02:11;;;;;;;1.57;0.90;;;2.70;99.90;;;;;;5064699;28;20199;-80
2022/01/27 03:04:37;;;;;;;1.37;0.80;;;2.70;99.90;;;;;;5065925;28;20658;-79
2022/01/27 03:07:04;;;;;;;0.80;0.80;;;2.70;99.90;;;;;;5064852;28;20250;-79
2022/01/27 03:09:33;;;;;;;0.57;0.57;;;2.70;99.90;;;;;;5062504;28;20222;-79
2022/01/27 03:12:01;;;;;;;1.03;1.03;;;2.70;99.90;;;;;;5068919;28;20203;-79
2022/01/27 03:14:27;;;;;;;0.43;0.43;;;2.70;99.90;;;;;;5068902;28;20663;-79
2022/01/27 03:16:54;;;;;;;2.37;1.43;;;2.70;99.90;;;;;;5068395;28;20663;-79
2022/01/27 03:19:20;;;;;;;1.73;1.07;;;2.70;99.90;;;;;;5068974;28;20194;-79
2022/01/27 03:21:46;;;;;;;3.63;1.13;;;2.70;99.90;;;;;;5068746;28;20189;-79
2022/01/27 03:24:12;;;;;;;1.37;0.70;;;2.70;99.90;;;;;;5067776;28;20260;-79
2022/01/27 03:26:38;;;;;;;1.30;1.03;;;2.70;99.90;;;;;;5067280;28;20227;-79
2022/01/27 03:29:04;;;;;;;1.17;0.90;;;2.70;99.90;;;;;;5069637;28;20239;-79
2022/01/27 03:31:30;;;;;;;1.33;1.23;;;2.70;99.90;;;;;;5068071;28;20216;-79
2022/01/27 03:33:55;;;;;;;1.10;1.00;;;2.70;99.90;;;;;;5068151;28;20184;-78
2022/01/27 03:36:22;;;;;;;0.60;0.60;;;2.70;99.90;;;;;;5068488;28;20207;-78
2022/01/27 03:38:47;;;;;;;1.53;1.43;;;2.70;99.90;;;;;;5067037;28;20197;-79
2022/01/27 03:41:18;;;;;;;2.13;1.97;;;2.70;99.90;;;;;;5065890;28;20209;-79
2022/01/27 03:43:44;;;;;;;1.23;1.13;;;2.60;99.90;;;;;;5064821;28;20270;-78
2022/01/27 03:46:09;;;;;;;0.60;0.60;;;2.70;99.90;;;;;;5066846;28;20655;-79
2022/01/27 03:48:35;;;;;;;1.43;1.33;;;2.70;99.90;;;;;;5067987;28;20197;-79
2022/01/27 03:51:01;;;;;;;0.70;0.70;;;2.70;99.90;;;;;;5065477;28;20214;-78
2022/01/27 03:53:26;;;;;;;2.73;1.37;;;2.70;99.90;;;;;;5066476;28;20658;-79
2022/01/27 03:55:52;;;;;;;3.23;1.33;;;2.60;99.90;;;;;;5067472;28;20200;-79
2022/01/27 03:58:17;;;;;;;1.13;1.13;;;2.60;99.90;;;;;;5068619;28;20224;-79
2022/01/27 04:00:43;;;;;;;1.10;1.00;;;2.70;99.90;;;;;;5068045;28;20215;-79
2022/01/27 04:03:11;;;;;;;0.87;0.70;;;2.70;99.90;;;;;;5068198;28;20187;-79
2022/01/27 04:05:48;;;;;;;1.83;0.83;;;2.70;99.90;;;;;;5066702;28;20186;-79
2022/01/27 04:08:13;;;;;;;1.57;1.23;;;2.70;99.90;;;;;;5070398;28;20193;-79
2022/01/27 04:10:40;;;;;;;4.73;2.13;;;2.70;99.90;;;;;;5068291;28;20527;-79
2022/01/27 04:13:07;;;;;;;2.00;1.50;;;2.70;99.90;;;;;;5069805;28;20185;-79
2022/01/27 04:15:34;;;;;;;1.13;1.03;;;2.70;99.90;;;;;;5067258;28;20189;-79
2022/01/27 04:18:00;;;;;;;1.03;1.03;;;2.70;99.90;;;;;;5067742;28;20189;-79
2022/01/27 04:20:26;;;;;;;1.27;0.70;;;2.70;99.90;;;;;;5066457;28;20202;-79
2022/01/27 04:22:52;;;;;;;1.87;0.63;;;2.80;99.90;;;;;;5066276;28;20254;-79
2022/01/27 04:25:18;;;;;;;1.43;1.33;;;2.70;99.90;;;;;;5067416;28;20554;-79
2022/01/27 04:27:49;;;;;;;1.60;0.73;;;2.80;99.90;;;;;;5066686;28;20345;-79
2022/01/27 04:30:19;;;;;;;3.10;1.03;;;2.80;99.90;;;;;;5066915;28;20221;-79
2022/01/27 04:32:50;;;;;;;1.83;1.43;;;2.90;99.90;;;;;;5078712;28;20273;-79
2022/01/27 04:35:19;;;;;;;0.20;0.20;;;2.90;99.90;;;;;;5075420;28;20185;-79
2022/01/27 04:40:30;;;;;;;0.40;0.40;;;2.90;99.90;;;;;;5068997;28;21148;-79
2022/01/27 04:43:07;;;;;;;1.90;0.83;;;2.90;99.90;;;;;;5071219;28;20177;-79
2022/01/27 04:45:43;;;;;;;1.37;1.13;;;2.90;99.90;;;;;;5073046;28;20173;-79
2022/01/27 04:48:13;;;;;;;1.77;0.87;;;3.00;99.90;;;;;;5066266;28;20590;-79
2022/01/27 04:50:39;;;;;;;2.53;1.43;;;2.90;99.90;;;;;;5068070;28;20238;-79
2022/01/27 04:53:09;;;;;;;1.07;0.97;;;2.90;99.90;;;;;;5061543;28;20204;-79
2022/01/27 04:55:34;;;;;;;1.00;0.83;;;3.00;99.90;;;;;;5062670;28;21082;-79
2022/01/27 04:58:14;;;;;;;0.57;0.43;;;3.00;99.90;;;;;;5066177;28;20190;-79
2022/01/27 05:00:40;;;;;;;5.37;1.20;;;2.90;99.90;;;;;;5065551;28;20205;-78
2022/01/27 05:03:15;;;;;;;4.33;1.13;;;2.90;99.90;;;;;;5066912;28;20678;-80
2022/01/27 05:05:41;;;;;;;0.57;0.57;;;2.90;99.90;;;;;;5066393;28;20181;-79
2022/01/27 05:08:10;;;;;;;1.63;1.03;;;2.90;99.90;;;;;;5066377;28;20180;-78
2022/01/27 05:10:36;;;;;;;0.67;0.67;;;2.90;99.90;;;;;;5066502;28;20582;-79
2022/01/27 05:13:22;;;;;;;0.63;0.63;;;2.90;99.90;;;;;;5065782;28;20171;-79
2022/01/27 05:15:47;;;;;;;6.50;1.37;;;2.90;99.90;;;;;;5064144;28;20222;-79
2022/01/27 05:18:15;;;;;;;4.07;1.27;;;2.90;99.90;;;;;;5066855;28;20260;-80
2022/01/27 05:20:41;;;;;;;1.00;1.00;;;2.90;99.90;;;;;;5066125;28;20198;-79
2022/01/27 05:23:07;;;;;;;1.13;0.93;;;2.90;99.90;;;;;;5064840;28;20190;-79
2022/01/27 05:25:33;;;;;;;1.07;0.30;;;3.00;99.90;;;;;;5064990;28;20674;-79
2022/01/27 05:27:59;;;;;;;1.43;1.33;;;3.00;99.90;;;;;;5064840;28;21139;-79
2022/01/27 05:30:25;;;;;;;3.63;1.73;;;3.00;99.90;;;;;;5065771;28;20210;-78
2022/01/27 05:32:50;;;;;;;1.30;1.20;;;3.00;99.90;;;;;;5067714;28;20193;-80
2022/01/27 05:35:16;;;;;;;2.23;0.90;;;3.00;99.90;;;;;;5068935;28;20182;-79
2022/01/27 05:37:42;;;;;;;1.47;1.23;;;2.90;99.90;;;;;;5069843;28;20181;-79
2022/01/27 05:40:08;;;;;;;1.87;0.80;;;2.90;99.90;;;;;;5066562;28;20190;-79
2022/01/27 05:42:33;;;;;;;6.80;0.87;;;2.90;99.90;;;;;;5066942;28;20194;-79
2022/01/27 05:44:59;;;;;;;0.70;0.70;;;2.90;99.90;;;;;;5069884;28;20183;-79
2022/01/27 05:47:24;;;;;;;1.40;0.77;;;2.90;99.90;;;;;;5067463;28;20228;-79
2022/01/27 05:49:50;;;;;;;0.53;0.53;;;2.90;99.90;;;;;;5066216;28;20205;-79
2022/01/27 05:52:16;;;;;;;6.40;0.87;;;2.90;99.90;;;;;;5074752;28;20651;-79
2022/01/27 05:54:42;;;;;;;2.03;1.93;;;2.90;99.90;;;;;;5075258;28;20209;-79
2022/01/27 05:57:08;;;;;;;1.27;1.17;;;2.90;99.90;;;;;;5073397;28;20610;-79
2022/01/27 05:59:33;;;;;;;1.33;1.23;;;3.00;99.90;;;;;;5074362;28;20228;-79
2022/01/27 06:01:59;;;;;;;0.73;0.60;;;2.90;99.90;;;;;;5072649;28;20195;-81
2022/01/27 06:04:25;;;;;;;1.03;0.93;;;3.00;99.90;;;;;;5073360;28;20199;-81
2022/01/27 06:06:53;;;;;;;1.10;1.00;;;3.10;99.90;;;;;;5075886;28;20191;-81
2022/01/27 06:09:18;;;;;;;2.70;2.60;;;3.10;99.90;;;;;;5077473;28;20223;-81
2022/01/27 06:11:44;;;;;;;0.70;0.70;;;3.10;99.90;;;;;;5079117;28;20194;-81
2022/01/27 06:14:09;;;;;;;0.87;0.87;;;3.20;99.90;;;;;;5076228;28;20239;-79
2022/01/27 06:16:35;;;;;;;0.73;0.73;;;3.10;99.90;;;;;;5069910;28;20233;-79
2022/01/27 06:19:02;;;;;;;1.30;0.93;;;3.20;99.90;;;;;;5074217;28;20192;-79
2022/01/27 06:21:28;;;;;;;1.20;0.30;;;3.20;99.90;;;;;;5078468;28;20213;-79
2022/01/27 06:23:53;;;;;;;0.60;0.60;;;3.20;99.90;;;;;;5080550;28;20212;-79
2022/01/27 06:26:19;;;;;;;0.67;0.67;;;3.20;99.90;;;;;;5079195;28;20268;-79
2022/01/27 06:28:44;;;;;;;1.87;0.90;;;3.20;99.90;;;;;;5080126;28;20220;-79
2022/01/27 06:31:10;;;;;;;8.50;1.13;;;3.20;99.90;;;;;;5078980;28;20236;-79
2022/01/27 06:33:35;;;;;;;1.40;1.27;;;3.20;99.90;;;;;;5075706;28;20190;-79
2022/01/27 06:36:01;;;;;;;0.60;0.60;;;3.20;99.90;;;;;;5074173;28;20193;-79
2022/01/27 06:38:26;;;;;;;0.73;0.73;;;3.20;99.90;;;;;;5077547;28;20731;-79
2022/01/27 06:40:52;;;;;;;0.33;0.33;;;3.30;99.90;;;;;;5075631;28;20276;-79
2022/01/27 06:43:17;;;;;;;1.53;1.27;;;3.30;99.90;;;;;;5075730;28;20242;-79
2022/01/27 06:45:43;;;;;;;0.60;0.60;;;3.40;99.90;;;;;;5075354;28;20207;-79
2022/01/27 06:48:08;;;;;;;0.93;0.93;;;3.40;99.90;;;;;;5076595;28;20191;-79
2022/01/27 06:50:37;;;;;;;0.87;0.43;;;3.40;99.90;;;;;;5078121;28;20207;-79
2022/01/27 06:53:02;;;;;;;0.50;0.50;;;3.40;99.90;;;;;;5076800;28;20208;-79
2022/01/27 06:55:29;;;;;;;1.57;1.47;;;3.30;99.90;;;;;;5084618;28;20255;-79
2022/01/27 06:57:54;;;;;;;0.37;0.37;;;3.40;99.90;;;;;;5081800;28;20190;-79
2022/01/27 07:00:20;;;;;;;2.40;0.50;;;3.40;99.90;;;;;;5076575;28;20225;-79
2022/01/27 07:02:45;;;;;;;0.43;0.43;;;3.40;99.90;;;;;;5078011;28;20190;-78
2022/01/27 07:05:14;;;;;;;0.63;0.47;;;3.40;99.90;;;;;;5063960;28;20273;-78
2022/01/27 07:07:40;;;;;;;0.80;0.53;;;3.50;99.90;;;;;;5067267;28;20196;-84
2022/01/27 07:10:07;;;;;;;2.70;2.50;;;3.50;99.90;;;;;;5068197;28;20669;-80
2022/01/27 07:12:32;;;;;;;0.67;0.67;;;3.60;99.90;;;;;;5060726;28;20453;-81
2022/01/27 07:14:58;;;;;;;0.83;0.50;;;3.60;99.90;;;;;;5074604;28;20277;-81
2022/01/27 07:17:24;;;;;;;4.27;0.70;;;3.50;99.90;;;;;;5070336;28;20191;-80
2022/01/27 07:19:49;;;;;;;1.37;0.77;;;3.50;99.90;;;;;;5054463;28;21243;-78
2022/01/27 07:22:15;;;;;;;0.57;0.57;;;3.30;99.90;;;;;;5070975;28;20231;-79
2022/01/27 07:24:40;;;;;;;1.10;0.80;;;3.30;99.90;;;;;;5074077;28;20204;-79
2022/01/27 07:27:07;;;;;;;0.10;0.10;;;3.30;99.90;;;;;;5074634;28;20195;-79
2022/01/27 07:29:32;;;;;;;2.80;0.97;;;3.40;99.90;;;;;;5068333;28;20222;-78
2022/01/27 07:31:58;;;;;;;1.03;0.93;;;3.30;99.90;;;;;;5073139;28;20185;-78
2022/01/27 07:34:23;;;;;;;2.60;0.80;;;3.30;99.90;;;;;;5077312;28;20200;-78
2022/01/27 07:36:54;;;;;;;0.30;0.30;;;3.30;99.90;;;;;;5072341;28;20186;-78
2022/01/27 07:39:20;;;;;;;0.27;0.27;;;3.20;99.90;;;;;;5069945;28;20197;-78
2022/01/27 07:41:46;;;;;;;0.93;0.87;;;3.30;99.90;;;;;;5062915;28;20196;-77
2022/01/27 07:44:12;;;;;;;0.87;0.60;;;3.20;99.90;;;;;;5062898;28;20180;-78
2022/01/27 07:46:38;;;;;;;1.07;0.70;;;3.20;99.90;;;;;;5062794;28;20793;-79
2022/01/27 07:49:04;;;;;;;0.40;0.20;;;3.20;99.90;;;;;;5058277;28;20230;-77
2022/01/27 07:51:30;;;;;;;0.93;0.93;;;3.10;99.90;;;;;;5063506;28;20230;-78
2022/01/27 07:53:56;;;;;;;0.50;0.50;;;3.20;99.90;;;;;;5059536;28;20273;-78
2022/01/27 07:56:22;;;;;;;1.13;0.83;;;3.30;99.90;;;;;;5061968;28;20281;-78
2022/01/27 07:58:47;;;;;;;0.67;0.67;;;3.30;99.90;;;;;;5067950;28;20293;-78
2022/01/27 08:01:13;;;;;;;0.40;0.40;;;3.30;99.90;;;;;;5064387;28;20216;-78
2022/01/27 08:03:39;;;;;;;1.40;1.13;;;3.40;99.90;;;;;;5067338;28;20179;-82
2022/01/27 08:06:06;;;;;;;0.57;0.40;;;3.40;99.90;;;;;;5067900;28;20184;-80
2022/01/27 08:08:31;;;;;;;0.20;0.20;;;3.40;99.90;;;;;;5066712;28;20242;-79
2022/01/27 08:10:58;;;;;;;0.17;0.17;;;3.50;99.90;;;;;;5065819;28;20245;-79
2022/01/27 08:13:25;;;;;;;0.10;0.10;;;3.60;99.90;;;;;;5064082;28;20193;-78
2022/01/27 08:15:51;;;;;;;2.60;0.83;;;3.50;99.90;;;;;;5063743;28;20191;-78
2022/01/27 08:18:16;;;;;;;1.53;0.93;;;3.60;99.90;;;;;;5064725;28;20324;-77
2022/01/27 08:20:42;;;;;;;1.63;1.03;;;3.60;99.90;;;;;;5063283;28;20266;-77
2022/01/27 08:23:07;;;;;;;1.47;1.40;;;3.60;99.90;;;;;;5063174;28;20231;-77
2022/01/27 08:25:34;;;;;;;0.57;0.20;;;3.60;99.90;;;;;;5063790;28;20554;-77
2022/01/27 08:28:04;;;;;;;0.40;0.40;;;3.60;99.90;;;;;;5064065;28;20190;-78
2022/01/27 08:30:37;;;;;;;0.73;0.73;;;3.60;99.90;;;;;;5071965;28;20222;-78
2022/01/27 08:33:15;;;;;;;2.73;1.17;;;3.60;99.90;;;;;;5071397;28;20168;-78
2022/01/27 08:35:41;;;;;;;0.80;0.73;;;3.60;99.90;;;;;;5071848;28;20191;-78
2022/01/27 08:38:06;;;;;;;0.40;0.23;;;3.60;99.90;;;;;;5069328;28;20291;-78
2022/01/27 08:40:32;;;;;;;0.90;0.90;;;3.60;99.90;;;;;;5071478;28;20265;-79
2022/01/27 08:42:58;;;;;;;1.27;1.00;;;3.60;99.90;;;;;;5070956;28;20198;-79
2022/01/27 08:45:25;;;;;;;1.23;0.83;;;3.60;99.90;;;;;;5067162;28;20660;-83
2022/01/27 08:47:51;;;;;;;0.90;0.87;;;3.60;99.90;;;;;;5068777;28;20178;-83
2022/01/27 08:50:19;;;;;;;2.50;1.87;;;3.60;99.90;;;;;;5065272;28;20219;-79
2022/01/27 08:52:45;;;;;;;0.40;0.40;;;3.60;99.90;;;;;;5060909;28;20183;-78
2022/01/27 08:55:11;;;;;;;2.67;1.30;;;3.50;99.90;;;;;;5064627;28;20234;-79
2022/01/27 08:57:37;;;;;;;0.73;0.60;;;3.60;99.90;;;;;;5065729;28;20267;-79
2022/01/27 09:00:09;;;;;;;2.97;1.50;;;3.60;99.90;;;;;;5059157;28;20348;-78
2022/01/27 09:02:34;;;;;;;0.53;0.53;;;3.60;99.90;;;;;;5061098;28;20204;-78
2022/01/27 09:05:00;;;;;;;0.47;0.47;;;3.60;99.90;;;;;;5061007;28;20659;-78
2022/01/27 09:07:26;;;;;;;1.07;0.97;;;3.70;99.90;;;;;;5060416;28;20193;-78
2022/01/27 09:09:51;;;;;;;1.07;0.80;;;3.70;99.90;;;;;;5060115;28;20214;-78
2022/01/27 09:12:17;;;;;;;0.63;0.63;;;3.70;99.90;;;;;;5062003;28;20194;-78
2022/01/27 09:14:43;;;;;;;1.33;0.70;;;3.70;99.90;;;;;;5060567;28;20270;-78
2022/01/27 09:17:10;;;;;;;1.60;0.43;;;3.80;99.90;;;;;;5058164;28;20193;-78
2022/01/27 09:19:38;;;;;;;1.03;0.67;;;3.80;99.90;;;;;;5062820;28;20242;-78
2022/01/27 09:22:08;;;;;;;0.40;0.40;;;3.90;99.90;;;;;;5061206;28;20287;-78
2022/01/27 09:24:50;;;;;;;0.43;0.30;;;3.90;99.90;;;;;;5060674;28;20210;-78
2022/01/27 09:27:16;;;;;;;0.73;0.73;;;3.90;99.90;;;;;;5061135;28;20206;-79
2022/01/27 09:29:42;;;;;;;0.57;0.57;;;4.00;99.90;;;;;;5060737;28;20225;-79
2022/01/27 09:32:09;;;;;;;0.20;0.20;;;4.00;99.90;;;;;;5063428;28;20197;-79
2022/01/27 09:34:35;;;;;;;6.73;0.93;;;4.10;99.90;;;;;;5057416;28;20266;-79
2022/01/27 09:37:02;;;;;;;0.40;0.40;;;4.10;99.90;;;;;;5060189;28;20279;-79
2022/01/27 09:39:29;;;;;;;1.53;0.60;;;4.10;99.90;;;;;;5061015;28;20272;-79
2022/01/27 09:41:56;;;;;;;1.97;1.10;;;4.20;99.90;;;;;;5060842;28;20189;-79
2022/01/27 09:44:28;;;;;;;1.40;1.07;;;4.20;99.90;;;;;;5063972;28;20196;-79
2022/01/27 09:46:57;;;;;;;0.70;0.70;;;4.10;99.90;;;;;;5066933;28;20290;-80
2022/01/27 09:49:31;;;;;;;0.50;0.50;;;4.20;99.90;;;;;;5064777;28;20704;-79
2022/01/27 09:51:57;;;;;;;0.70;0.70;;;4.20;99.90;;;;;;5064091;28;20274;-80
2022/01/27 09:54:22;;;;;;;0.77;0.77;;;4.30;99.90;;;;;;5064565;28;21206;-80
2022/01/27 09:56:49;;;;;;;0.30;0.30;;;4.20;99.90;;;;;;5060125;28;20183;-80
2022/01/27 09:59:16;;;;;;;0.30;0.30;;;4.20;99.90;;;;;;5059994;28;20197;-79
2022/01/27 10:02:01;;;;;;;1.63;0.77;;;4.30;99.90;;;;;;5067566;28;20203;-80
2022/01/27 10:04:51;;;;;;;0.57;0.53;;;4.40;99.90;;;;;;5065630;28;20202;-81
2022/01/27 10:07:40;;;;;;;0.63;0.63;;;4.50;99.90;;;;;;5066219;28;20245;-81
2022/01/27 10:10:11;;;;;;;2.07;0.57;;;4.50;99.90;;;;;;5058602;28;20214;-80
2022/01/27 10:12:43;;;;;;;1.43;1.07;;;4.60;99.90;;;;;;5067151;28;20189;-80
2022/01/27 10:15:21;;;;;;;2.03;1.30;;;4.70;99.90;;;;;;5066425;28;20180;-79
2022/01/27 10:18:07;;;;;;;9.00;0.53;;;4.70;99.90;;;;;;5068484;28;20648;-80
2022/01/27 10:20:34;;;;;;;0.73;0.73;;;4.80;99.90;;;;;;5067297;28;20305;-79
2022/01/27 10:23:22;;;;;;;0.40;0.40;;;4.90;99.90;;;;;;5068445;28;20201;-80
2022/01/27 10:26:08;;;;;;;1.67;1.60;;;4.80;99.90;;;;;;5071279;28;20199;-80
2022/01/27 10:31:19;;;;;;;0.63;0.63;;;4.80;99.90;;;;;;5076340;28;20203;-80
2022/01/27 10:33:50;;;;;;;0.83;0.70;;;4.90;99.90;;;;;;5065635;28;20233;-80
2022/01/27 10:36:18;;;;;;;1.10;1.00;;;4.90;99.90;;;;;;5064459;28;20189;-81
2022/01/27 10:38:44;;;;;;;0.20;0.20;;;5.00;99.90;;;;;;5065651;28;20192;-80
2022/01/27 10:41:10;;;;;;;0.60;0.60;;;5.00;99.90;;;;;;5064233;28;20204;-82
2022/01/27 10:43:35;;;;;;;2.43;1.00;;;5.00;99.90;;;;;;5060299;28;20193;-80
2022/01/27 10:46:24;;;;;;;3.40;0.40;;;5.00;99.90;;;;;;5061245;28;20323;-79
2022/01/27 10:49:07;;;;;;;0.53;0.50;;;5.00;99.90;;;;;;5059763;28;20232;-79
2022/01/27 10:51:48;;;;;;;0.40;0.40;;;5.10;99.90;;;;;;5065541;28;20966;-79
2022/01/27 10:54:23;;;;;;;0.23;0.23;;;5.10;99.90;;;;;;5064760;28;20261;-80
2022/01/27 10:56:49;;;;;;;0.73;0.73;;;5.20;99.90;;;;;;5066979;28;20195;-80
2022/01/27 10:59:19;;;;;;;0.43;0.20;;;5.30;99.90;;;;;;5064895;28;20234;-79
2022/01/27 11:01:49;;;;;;;1.10;0.73;;;5.30;99.90;;;;;;5065014;28;20181;-80
2022/01/27 11:04:17;;;;;;;1.83;1.50;;;5.40;99.90;;;;;;5061113;28;20653;-80
2022/01/27 11:06:58;;;;;;;0.57;0.57;;;5.40;99.90;;;;;;5064883;28;20638;-80
2022/01/27 11:09:25;;;;;;;0.30;0.30;;;5.40;99.90;;;;;;5061965;28;20300;-80
2022/01/27 11:11:53;;;;;;;1.23;0.60;;;5.40;99.90;;;;;;5063818;28;20185;-80
2022/01/27 11:14:20;;;;;;;0.57;0.37;;;5.40;99.90;;;;;;5062874;28;20663;-80
2022/01/27 11:16:49;;;;;;;0.60;0.60;;;5.40;99.90;;;;;;5061873;28;20251;-81
2022/01/27 11:27:38;;;;;;;0.53;0.50;;;5.30;99.90;;;;;;5059643;28;20238;-80
2022/01/27 11:30:11;;;;;;;1.03;1.00;;;5.20;99.90;;;;;;5062900;28;20291;-77
2022/01/27 11:33:01;;;;;;;1.47;1.23;;;5.20;99.90;;;;;;5065468;28;20174;-78
2022/01/27 11:35:27;;;;;;;0.83;0.80;;;5.10;99.90;;;;;;5063198;28;20182;-78
2022/01/27 11:38:00;;;;;;;0.67;0.50;;;5.00;99.90;;;;;;5066920;28;20179;-79
2022/01/27 11:40:46;;;;;;;0.77;0.40;;;4.90;99.90;;;;;;5062517;28;20205;-79
2022/01/27 11:43:17;;;;;;;1.67;0.37;;;4.90;99.90;;;;;;5065576;28;20926;-80
2022/01/27 11:45:47;;;;;;;0.53;0.53;;;4.90;99.90;;;;;;5063573;28;20194;-80
2022/01/27 11:48:17;;;;;;;0.30;0.30;;;4.90;99.90;;;;;;5067040;28;20218;-79
2022/01/27 11:50:54;;;;;;;0.77;0.73;;;4.90;99.90;;;;;;5063893;28;20208;-79
2022/01/27 11:53:33;;;;;;;0.83;0.83;;;4.90;99.90;;;;;;5068238;28;20173;-78
2022/01/27 11:56:02;;;;;;;1.33;1.10;;;4.90;99.90;;;;;;5066995;28;20260;-79
2022/01/27 11:58:29;;;;;;;0.63;0.63;;;5.00;99.90;;;;;;5066229;28;21214;-79
2022/01/27 12:01:07;;;;;;;1.77;0.93;;;5.00;99.90;;;;;;5064467;28;20211;-79
2022/01/27 12:03:34;;;;;;;0.30;0.30;;;5.00;99.90;;;;;;5065038;28;20294;-79
2022/01/27 12:06:21;;;;;;;0.83;0.83;;;5.00;99.90;;;;;;5060805;28;20181;-79
2022/01/27 12:08:48;;;;;;;0.20;0.20;;;5.00;99.90;;;;;;5061730;28;20208;-80
2022/01/27 12:11:55;;;;;;;0.63;0.30;;;5.00;99.90;;;;;;5065402;28;20208;-79
2022/01/27 12:14:32;;;;;;;0.97;0.80;;;5.10;99.90;;;;;;5064279;28;20192;-78
2022/01/27 12:17:07;;;;;;;0.90;0.87;;;5.00;99.90;;;;;;5061252;28;20183;-78
2022/01/27 12:19:59;;;;;;;1.77;0.83;;;5.00;99.90;;;;;;5061495;28;20620;-80
2022/01/27 12:22:28;;;;;;;0.67;0.67;;;5.00;99.90;;;;;;5058153;28;20205;-79
2022/01/27 12:24:59;;;;;;;1.07;1.00;;;5.10;99.90;;;;;;5059897;28;20653;-79
2022/01/27 12:27:27;;;;;;;1.33;1.23;;;5.10;99.90;;;;;;5063183;28;20633;-79
2022/01/27 12:29:54;;;;;;;0.10;0.10;;;5.20;99.90;;;;;;5059501;28;20238;-78
2022/01/27 12:32:31;;;;;;;0.37;0.37;;;5.20;99.90;;;;;;5061082;28;20189;-78
2022/01/27 12:35:08;;;;;;;0.40;0.40;;;5.10;99.90;;;;;;5060734;28;20560;-78
2022/01/27 12:37:39;;;;;;;0.10;0.10;;;5.10;99.90;;;;;;5050449;28;20689;-78
2022/01/27 12:40:17;;;;;;;0.50;0.50;;;5.10;99.90;;;;;;5059801;28;20894;-78
2022/01/27 12:42:59;;;;;;;0.20;0.20;;;5.20;99.90;;;;;;5062373;28;20177;-79
2022/01/27 12:45:28;;;;;;;1.40;0.57;;;5.30;99.90;;;;;;5063753;28;20190;-78
2022/01/27 12:47:55;;;;;;;1.70;0.93;;;5.40;99.90;;;;;;5061811;28;20426;-78
2022/01/27 12:50:23;;;;;;;0.20;0.20;;;5.40;99.90;;;;;;5064344;28;20223;-78
2022/01/27 12:52:53;;;;;;;0.40;0.40;;;5.40;99.90;;;;;;5071006;28;20215;-79
2022/01/27 12:55:28;;;;;;;0.43;0.27;;;5.50;99.90;;;;;;5061313;28;20181;-80
2022/01/27 12:57:55;;;;;;;3.57;1.03;;;5.50;99.90;;;;;;5060790;28;20240;-78
2022/01/27 13:00:21;;;;;;;0.73;0.73;;;5.50;99.90;;;;;;5062205;28;20224;-78
2022/01/27 13:02:47;;;;;;;1.80;0.30;;;5.60;99.90;;;;;;5059215;28;22014;-79
2022/01/27 13:05:13;;;;;;;1.70;0.70;;;5.60;99.90;;;;;;5062292;28;20183;-78
2022/01/27 13:07:41;;;;;;;1.40;0.60;;;5.60;99.90;;;;;;5062537;28;20740;-79
2022/01/27 13:10:13;;;;;;;0.53;0.53;;;5.60;99.90;;;;;;5060575;28;20213;-79
2022/01/27 13:12:47;;;;;;;2.20;0.60;;;5.70;99.90;;;;;;5061066;28;20230;-80
2022/01/27 13:15:18;;;;;;;0.60;0.50;;;5.70;99.90;;;;;;5061720;28;20549;-79
2022/01/27 13:17:59;;;;;;;0.97;0.70;;;5.60;99.90;;;;;;5062976;28;20634;-79
2022/01/27 13:20:34;;;;;;;2.20;1.13;;;5.50;99.90;;;;;;5063062;28;20201;-79
2022/01/27 13:23:23;;;;;;;0.37;0.33;;;5.50;99.90;;;;;;5059674;28;20173;-78
2022/01/27 13:25:56;;;;;;;0.73;0.70;;;5.40;99.90;;;;;;5062503;28;20184;-80
2022/01/27 13:28:25;;;;;;;1.17;0.93;;;5.30;99.90;;;;;;5060759;28;20181;-78
2022/01/27 13:31:00;;;;;;;0.30;0.30;;;5.20;99.90;;;;;;5063859;28;20300;-79
2022/01/27 13:33:27;;;;;;;0.20;0.17;;;5.10;99.90;;;;;;5060634;28;20234;-79
2022/01/27 13:35:58;;;;;;;0.83;0.57;;;5.10;99.90;;;;;;5060111;28;20234;-79
2022/01/27 13:38:37;;;;;;;1.27;1.27;;;5.10;99.90;;;;;;5062799;28;20312;-79
2022/01/27 13:41:20;;;;;;;0.40;0.40;;;5.10;99.90;;;;;;5061128;28;20689;-79
2022/01/27 13:43:53;;;;;;;0.53;0.53;;;5.20;99.90;;;;;;5062167;28;20187;-79
2022/01/27 13:46:36;;;;;;;0.37;0.27;;;5.20;99.90;;;;;;5060752;28;20177;-79
2022/01/27 13:49:08;;;;;;;0.87;0.80;;;5.30;99.90;;;;;;5061382;28;20199;-78
2022/01/27 13:51:52;;;;;;;0.80;0.77;;;5.30;99.90;;;;;;5060816;28;20209;-80
2022/01/27 13:54:30;;;;;;;2.43;1.13;;;5.30;99.90;;;;;;5059901;28;20196;-79
2022/01/27 13:57:12;;;;;;;0.63;0.63;;;5.30;99.90;;;;;;5058742;28;20188;-79
2022/01/27 13:59:44;;;;;;;0.83;0.67;;;5.30;99.90;;;;;;5061087;28;20258;-79